createdAt,value
2017-09-11T00:00:02.097Z,14.5
2017-09-11T00:05:06.935Z,14.4
2017-09-11T00:10:01.948Z,14.5
2017-09-11T00:15:01.439Z,14.4
2017-09-11T00:20:02.028Z,14.4
2017-09-11T00:25:02.832Z,14.4
2017-09-11T00:30:01.428Z,14.4
2017-09-11T00:35:02.084Z,14.4
2017-09-11T00:40:01.138Z,14.4
2017-09-11T00:45:01.399Z,14.4
2017-09-11T00:50:02.179Z,14.4
2017-09-11T00:55:01.860Z,14.4
2017-09-11T01:00:01.713Z,14.5
2017-09-11T01:05:01.385Z,14.5
2017-09-11T01:10:02.071Z,14.5
2017-09-11T01:15:02.134Z,14.6
2017-09-11T01:20:01.991Z,14.6
2017-09-11T01:25:01.863Z,14.6
2017-09-11T01:30:01.615Z,14.7
2017-09-11T01:35:01.407Z,14.7
2017-09-11T01:40:01.466Z,14.7
2017-09-11T01:45:02.123Z,14.8
2017-09-11T01:50:01.820Z,14.7
2017-09-11T01:55:01.395Z,14.7
2017-09-11T02:00:01.497Z,14.8
2017-09-11T02:05:02.027Z,14.7
2017-09-11T02:10:01.271Z,14.7
2017-09-11T02:15:01.904Z,14.7
2017-09-11T02:20:01.558Z,14.7
2017-09-11T02:25:02.070Z,14.6
2017-09-11T02:30:01.363Z,14.6
2017-09-11T02:35:02.161Z,14.6
2017-09-11T02:40:01.578Z,14.6
2017-09-11T02:45:01.521Z,14.6
2017-09-11T02:50:01.355Z,14.6
2017-09-11T02:55:02.054Z,14.6
2017-09-11T03:00:02.131Z,14.6
2017-09-11T03:05:01.547Z,14.5
2017-09-11T03:10:01.281Z,14.5
2017-09-11T03:15:02.074Z,14.5
2017-09-11T03:20:01.642Z,14.5
2017-09-11T03:25:02.144Z,14.5
2017-09-11T03:30:02.157Z,14.5
2017-09-11T03:35:01.315Z,14.5
2017-09-11T03:40:01.651Z,14.5
2017-09-11T03:45:01.786Z,14.5
2017-09-11T03:50:01.740Z,14.5
2017-09-11T03:55:01.885Z,14.5
2017-09-11T04:00:01.870Z,14.5
2017-09-11T04:05:01.594Z,14.4
2017-09-11T04:10:01.779Z,14.4
2017-09-11T04:15:02.070Z,14.4
2017-09-11T04:20:01.782Z,14.4
2017-09-11T04:25:01.584Z,14.4
2017-09-11T04:30:01.997Z,14.4
2017-09-11T04:35:01.629Z,14.4
2017-09-11T04:40:01.499Z,14.4
2017-09-11T04:45:01.829Z,14.4
2017-09-11T04:50:02.146Z,14.4
2017-09-11T04:55:01.604Z,14.4
2017-09-11T05:00:01.654Z,14.4
2017-09-11T05:05:01.356Z,14.4
2017-09-11T05:10:01.257Z,14.4
2017-09-11T05:15:02.147Z,14.4
2017-09-11T05:20:02.070Z,14.4
2017-09-11T05:25:01.700Z,14.4
2017-09-11T05:30:01.729Z,14.3
2017-09-11T05:35:01.390Z,14.2
2017-09-11T05:40:02.130Z,14.2
2017-09-11T05:45:01.138Z,14.2
2017-09-11T05:50:01.751Z,14
2017-09-11T05:55:01.186Z,13.9
2017-09-11T06:00:01.273Z,13.8
2017-09-11T06:05:01.379Z,13.8
2017-09-11T06:10:01.187Z,13.8
2017-09-11T06:15:02.049Z,13.8
2017-09-11T06:20:01.798Z,13.8
2017-09-11T06:25:02.008Z,13.8
2017-09-11T06:30:02.062Z,13.8
2017-09-11T06:35:01.888Z,13.8
2017-09-11T06:40:01.784Z,13.8
2017-09-11T06:45:01.604Z,13.7
2017-09-11T06:50:01.553Z,13.7
2017-09-11T06:55:01.967Z,13.7
2017-09-11T07:00:01.269Z,13.6
2017-09-11T07:05:01.842Z,13.8
2017-09-11T07:10:02.162Z,13.7
2017-09-11T07:15:01.323Z,13.8
2017-09-11T07:20:02.013Z,13.8
2017-09-11T07:25:01.404Z,13.8
2017-09-11T07:30:01.515Z,13.9
2017-09-11T07:35:02.091Z,14
2017-09-11T07:40:02.015Z,14
2017-09-11T07:45:01.751Z,14.1
2017-09-11T07:50:01.734Z,14.1
2017-09-11T07:55:01.845Z,14.2
2017-09-11T08:00:01.849Z,14.3
2017-09-11T08:05:01.961Z,14.5
2017-09-11T08:10:01.866Z,14.5
2017-09-11T08:15:01.618Z,14.5
2017-09-11T08:20:01.430Z,14.8
2017-09-11T08:25:01.674Z,15
2017-09-11T08:30:01.772Z,15
2017-09-11T08:35:02.146Z,15
2017-09-11T08:40:02.067Z,15
2017-09-11T08:45:02.114Z,15
2017-09-11T08:50:02.021Z,15
2017-09-11T08:55:02.062Z,15
2017-09-11T09:00:02.138Z,15.2
2017-09-11T09:05:01.495Z,15.5
2017-09-11T09:10:01.638Z,15.5
2017-09-11T09:15:01.894Z,15.5
2017-09-11T09:20:01.523Z,16.1
2017-09-11T09:25:01.473Z,16.1
2017-09-11T09:30:01.768Z,16.2
2017-09-11T09:35:01.271Z,16.3
2017-09-11T09:40:01.976Z,16.4
2017-09-11T09:45:01.519Z,16.4
2017-09-11T09:50:01.725Z,16.4
2017-09-11T09:55:01.259Z,16.5
2017-09-11T10:00:01.988Z,16.6
2017-09-11T10:05:01.508Z,16.8
2017-09-11T10:10:01.269Z,16.8
2017-09-11T10:15:01.751Z,16.8
2017-09-11T10:20:01.484Z,16.8
2017-09-11T10:25:01.656Z,17
2017-09-11T10:30:01.990Z,17
2017-09-11T10:35:01.573Z,17.4
2017-09-11T10:40:01.369Z,17.4
2017-09-11T10:45:01.408Z,17.6
2017-09-11T10:50:01.497Z,17.7
2017-09-11T10:55:01.211Z,17.7
2017-09-11T11:00:02.080Z,17.7
2017-09-11T11:05:01.929Z,18.1
2017-09-11T11:10:01.932Z,18.2
2017-09-11T11:15:02.005Z,18.2
2017-09-11T11:20:01.678Z,18.2
2017-09-11T11:25:01.966Z,18.3
2017-09-11T11:30:01.291Z,18.4
2017-09-11T11:35:01.521Z,18.4
2017-09-11T11:40:01.462Z,18.4
2017-09-11T11:45:01.892Z,18.4
2017-09-11T11:50:01.934Z,18.4
2017-09-11T11:55:01.508Z,18.4
2017-09-11T12:00:01.999Z,18.6
2017-09-11T12:05:01.725Z,18.6
2017-09-11T12:10:01.181Z,18.6
2017-09-11T12:15:02.160Z,18.6
2017-09-11T12:20:01.953Z,18.6
2017-09-11T12:25:01.240Z,18.7
2017-09-11T12:30:01.603Z,18.8
2017-09-11T12:35:01.321Z,18.8
2017-09-11T12:40:02.061Z,18.8
2017-09-11T12:45:01.981Z,18.8
2017-09-11T12:50:01.797Z,18.8
2017-09-11T12:55:01.753Z,18.9
2017-09-11T13:00:02.056Z,18.8
2017-09-11T13:05:01.711Z,18.8
2017-09-11T13:10:02.250Z,18.8
2017-09-11T13:15:01.343Z,18.6
2017-09-11T13:20:02.153Z,18.6
2017-09-11T13:25:02.035Z,18.6
2017-09-11T13:30:01.580Z,18.6
2017-09-11T13:35:02.049Z,18.5
2017-09-11T13:40:02.086Z,18.5
2017-09-11T13:45:01.618Z,18.4
2017-09-11T13:50:01.896Z,18.4
2017-09-11T13:55:01.368Z,18.4
2017-09-11T14:00:01.988Z,18.5
2017-09-11T14:05:01.327Z,18.4
2017-09-11T14:10:01.512Z,18.4
2017-09-11T14:15:01.990Z,18.4
2017-09-11T14:20:01.630Z,18.4
2017-09-11T14:25:01.975Z,18.2
2017-09-11T14:30:02.014Z,18.2
2017-09-11T14:35:01.641Z,18.1
2017-09-11T14:40:01.342Z,18.1
2017-09-11T14:45:01.725Z,18.1
2017-09-11T14:50:01.616Z,18
2017-09-11T14:55:01.461Z,17.9
2017-09-11T15:00:01.399Z,17.9
2017-09-11T15:05:01.713Z,17.8
2017-09-11T15:10:01.511Z,17.9
2017-09-11T15:15:01.965Z,17.9
2017-09-11T15:20:01.688Z,17.9
2017-09-11T15:25:01.724Z,17.7
2017-09-11T15:30:01.786Z,17.7
2017-09-11T15:35:01.891Z,17.7
2017-09-11T15:40:01.569Z,17.7
2017-09-11T15:45:01.667Z,17.7
2017-09-11T15:50:01.546Z,17.7
2017-09-11T15:55:01.489Z,17.6
2017-09-11T16:00:01.945Z,17.6
2017-09-11T16:05:01.292Z,17.6
2017-09-11T16:10:02.035Z,17.4
2017-09-11T16:15:01.365Z,17.5
2017-09-11T16:20:02.116Z,17.4
2017-09-11T16:25:02.136Z,17.4
2017-09-11T16:30:02.148Z,17.4
2017-09-11T16:35:02.051Z,17.3
2017-09-11T16:40:01.775Z,17.3
2017-09-11T16:45:01.850Z,17.2
2017-09-11T16:50:01.774Z,17.2
2017-09-11T16:55:01.545Z,17.2
2017-09-11T17:00:01.819Z,17.2
2017-09-11T17:05:01.883Z,16.9
2017-09-11T17:10:01.221Z,16.8
2017-09-11T17:15:01.399Z,16.8
2017-09-11T17:20:01.567Z,16.6
2017-09-11T17:25:01.866Z,16.5
2017-09-11T17:30:02.185Z,16.5
2017-09-11T17:35:01.764Z,16.2
2017-09-11T17:40:02.074Z,16
2017-09-11T17:45:01.608Z,16
2017-09-11T17:50:01.666Z,15.9
2017-09-11T17:55:01.288Z,15.7
2017-09-11T18:00:01.373Z,15.7
2017-09-11T18:05:01.786Z,15.7
2017-09-11T18:10:01.661Z,15.3
2017-09-11T18:15:01.211Z,15.2
2017-09-11T18:20:02.267Z,15.1
2017-09-11T18:25:02.006Z,15.1
2017-09-11T18:30:01.243Z,15
2017-09-11T18:35:01.570Z,15
2017-09-11T18:40:02.002Z,15
2017-09-11T18:45:01.980Z,15
2017-09-11T18:50:01.271Z,15
2017-09-11T18:55:02.052Z,15
2017-09-11T19:00:01.401Z,15
2017-09-11T19:05:01.512Z,15
2017-09-11T19:10:02.239Z,15
2017-09-11T19:15:01.978Z,15
2017-09-11T19:20:01.763Z,15
2017-09-11T19:25:01.604Z,15
2017-09-11T19:30:01.716Z,15
2017-09-11T19:35:01.800Z,14.9
2017-09-11T19:40:01.579Z,14.9
2017-09-11T19:45:01.556Z,14.8
2017-09-11T19:50:02.074Z,14.8
2017-09-11T19:55:01.593Z,14.8
2017-09-11T20:00:01.998Z,14.7
2017-09-11T20:05:01.929Z,14.6
2017-09-11T20:10:01.345Z,14.5
2017-09-11T20:15:01.915Z,14.4
2017-09-11T20:20:01.455Z,14.4
2017-09-11T20:25:01.944Z,14.3
2017-09-11T20:30:01.560Z,14.3
2017-09-11T20:35:01.894Z,14.3
2017-09-11T20:40:01.834Z,14.3
2017-09-11T20:45:01.752Z,14.2
2017-09-11T20:50:01.899Z,14.2
2017-09-11T20:55:02.313Z,14.2
2017-09-11T21:00:01.681Z,14.2
2017-09-11T21:05:01.510Z,14.1
2017-09-11T21:10:01.978Z,14.2
2017-09-11T21:15:02.021Z,14.2
2017-09-11T21:20:01.964Z,14.2
2017-09-11T21:25:01.726Z,14.2
2017-09-11T21:30:01.800Z,14.2
2017-09-11T21:35:01.711Z,14.2
2017-09-11T21:40:01.569Z,14.2
2017-09-11T21:45:01.748Z,14.2
2017-09-11T21:50:01.727Z,14.2
2017-09-11T21:55:02.043Z,14.2
2017-09-11T22:00:01.462Z,14.2
2017-09-11T22:05:02.048Z,14.2
2017-09-11T22:10:01.564Z,14.2
2017-09-11T22:15:01.885Z,14.2
2017-09-11T22:20:01.616Z,14.1
2017-09-11T22:25:01.209Z,14
2017-09-11T22:30:01.835Z,14
2017-09-11T22:35:01.474Z,13.9
2017-09-11T22:40:01.348Z,13.9
2017-09-11T22:45:02.040Z,13.8
2017-09-11T22:50:01.753Z,13.8
2017-09-11T22:55:01.474Z,13.8
2017-09-11T23:00:01.199Z,13.8
2017-09-11T23:05:01.380Z,13.8
2017-09-11T23:10:02.096Z,13.7
2017-09-11T23:15:01.655Z,13.7
2017-09-11T23:20:01.380Z,13.7
2017-09-11T23:25:01.844Z,13.6
2017-09-11T23:30:01.955Z,13.6
2017-09-11T23:35:14.201Z,13.6
2017-09-11T23:40:01.831Z,13.6
2017-09-11T23:45:03.379Z,13.6
2017-09-11T23:50:01.980Z,13.6
2017-09-11T23:55:02.102Z,13.6
